Flight Track Log - Related Links

Times and Time Zones

All times are in EDT time to prevent confusion due to time zone crossing. See the N400PU flight status page for this flight to view local times or setup timezone preferences in your user account.

Time Position Orientation Groundspeed Altitude Reporting Facility
EDT Latitude Longitude Course Direction KTS MPH feet Rate Location/Type
Thu 09:05:52 AM 40.8900 -85.1639 197° South 238 274 6,200  Level Chicago Center
Thu 09:06:54 AM 40.8656 -85.2522 250° West 249 287 9,200 2,806 Climbing Chicago Center
Thu 09:07:56 AM 40.8422 -85.3433 251° West 256 295 12,000 1,366 Climbing Chicago Center
Thu 09:08:57 AM 40.8114 -85.4583 251° West 296 341 12,000  Level Chicago Center
Thu 09:09:59 AM 40.7781 -85.5831 251° West 337 388 12,000  Level Chicago Center
Thu 09:10:00 AM 40.8228 -85.6363 245° Southwest  Level FlightAware Approximate
Thu 09:11:01 AM 40.7397 -85.7297 251° West 353 406 12,000  Level Chicago Center
Thu 09:12:03 AM 40.7072 -85.8508 251° West 351 404 12,000 -154 Level Chicago Center
Thu 09:12:19 AM 40.6969 -85.8914 252° West 351 404 11,800 -885 Descending Chicago Center
Thu 09:13:04 AM 40.6750 -85.9708 250° West 351 404 11,100 -800 Descending Chicago Center
Thu 09:13:19 AM 40.6667 -86.0050 252° West 347 399 11,000 -97 Descending Chicago Center
Thu 09:14:06 AM 40.6439 -86.0886 250° West 344 396 11,000  Level Chicago Center
Thu 09:15:08 AM 40.6131 -86.2031 250° West 336 387 11,000 -581 Level Chicago Center
Thu 09:16:10 AM 40.5867 -86.3044 251° West 305 351 9,800 -1,567 Descending Chicago Center
Thu 09:17:22 AM 40.5525 -86.4283 250° West 269 310 7,500 -1,887 Descending Chicago Center
Thu 09:18:14 AM 40.5314 -86.5061 250° West 268 308 5,900 -1,881 Descending Chicago Center
Thu 09:18:29 AM 40.5239 -86.5306 248° West 268 308 5,400 -1,574 Descending Chicago Center
Thu 09:19:15 AM 40.5078 -86.5925 251° West 257 296 4,300 -1,444 Descending Chicago Center
Thu 09:20:17 AM 40.4844 -86.6775 250° West 253 291 2,800 -1,065 Descending Chicago Center
Thu 09:21:19 AM 40.4661 -86.7631 254° West 250 288 2,100 -339 Descending Chicago Center
Thu 09:22:21 AM 40.4792 -86.8517 281° West 251 289 2,100  Level Chicago Center
Thu 09:23:32 AM 40.4758 -86.9322 267° West 193 222 2,100  Level Chicago Center
Thu 09:24:32 AM 40.4731 -87.0003 267° West 185 213 2,100 -104 Level Chicago Center
Thu 09:25:27 AM 40.4406 -87.0019 182° South 131 151 1,900 -218 Descending Chicago Center
Thu 09:27:00 AM 40.4123 -86.9369 255° West  Level Estimated

Login

Don't have an account? Register now (free) for customized features, flight alerts, and more!